Time;durP1;ratioP1;P1;durP2;ratioP2;P2;SDS_P1;SDS_P2;PMS_P1;PMS_P2;Temp;Humidity;BMP_temperature;BMP_pressure;BME280_temperature;BME280_humidity;BME280_pressure;Samples;Min_cycle;Max_cycle;Signal;HPM_P1;HPM_P2
2022/06/17 02:42:40;;;;;;;6.28;5.10;;;17.30;91.70;;;;;;6199125;22;1365563;-92
2022/06/17 02:45:36;;;;;;;5.78;5.22;;;17.30;91.80;;;;;;6251626;22;20008;-93
2022/06/17 02:48:27;;;;;;;5.85;5.25;;;17.30;91.70;;;;;;6250958;22;20008;-91
2022/06/17 02:51:21;;;;;;;5.70;5.10;;;17.30;91.80;;;;;;6252147;22;20054;-91
2022/06/17 02:54:08;;;;;;;5.97;5.18;;;17.30;91.90;;;;;;6228994;22;20004;-92
2022/06/17 02:56:54;;;;;;;;;;;;;;;;;;;;;
2022/06/17 02:59:32;;;;;;;;;;;;;;;;;;;;;
2022/06/17 03:02:54;;;;;;;7.03;6.30;;;17.20;92.00;;;;;;6279439;22;20071;-91
2022/06/17 03:06:01;;;;;;;;;;;;;;;;;;;;;
2022/06/17 03:08:53;;;;;;;7.90;6.10;;;17.10;92.10;;;;;;6280411;22;20083;-92
2022/06/17 03:14:12;;;;;;;6.78;6.15;;;17.00;92.30;;;;;;6295586;22;20011;-93
2022/06/17 03:16:54;;;;;;;;;;;;;;;;;;;;;
2022/06/17 03:19:35;;;;;;;8.02;6.82;;;17.00;92.40;;;;;;6294209;22;20000;-91
2022/06/17 03:22:13;;;;;;;8.05;6.70;;;17.00;92.50;;;;;;6258637;22;20018;-91
2022/06/17 03:24:58;;;;;;;9.73;7.18;;;16.90;92.50;;;;;;6254171;22;20004;-92
2022/06/17 03:27:44;;;;;;;7.63;6.82;;;16.80;92.60;;;;;;6255491;22;20038;-92
2022/06/17 03:30:15;;;;;;;7.35;6.65;;;16.80;92.70;;;;;;6276119;22;20004;-89
2022/06/17 03:33:10;;;;;;;;;;;;;;;;;;;;;
2022/06/17 03:35:39;;;;;;;6.88;6.18;;;16.80;92.70;;;;;;6305241;22;19988;-91
2022/06/17 03:38:30;;;;;;;6.15;5.55;;;16.70;92.80;;;;;;6278371;22;19988;-91
2022/06/17 03:41:30;;;;;;;7.00;5.90;;;16.70;92.90;;;;;;6208306;22;20007;-92
2022/06/17 03:47:05;;;;;;;6.30;5.70;;;16.70;93.20;;;;;;6233155;23;20005;-90
2022/06/17 03:50:07;;;;;;;;;;;;;;;;;;;;;
2022/06/17 03:52:50;;;;;;;8.70;6.65;;;16.60;93.00;;;;;;6217289;23;20087;-91
2022/06/17 03:55:43;;;;;;;7.63;6.13;;;16.60;93.10;;;;;;6194424;23;20052;-91
2022/06/17 03:58:45;;;;;;;;;;;;;;;;;;;;;
2022/06/17 04:01:31;;;;;;;6.10;5.50;;;16.70;93.30;;;;;;6219302;23;20076;-93
2022/06/17 04:04:28;;;;;;;6.20;5.60;;;16.70;93.40;;;;;;6218110;23;20365;-94
2022/06/17 04:06:57;;;;;;;6.15;5.55;;;16.70;93.40;;;;;;6218467;23;20013;-90
2022/06/17 04:09:36;;;;;;;6.05;5.45;;;16.80;93.40;;;;;;6218380;23;20004;-92
2022/06/17 04:12:06;;;;;;;6.82;6.22;;;16.80;93.30;;;;;;6220348;23;20007;-91
2022/06/17 04:15:03;;;;;;;7.15;6.50;;;16.90;93.30;;;;;;6218516;23;20004;-89
2022/06/17 04:17:34;;;;;;;9.50;6.70;;;16.90;93.40;;;;;;6179520;23;20334;-92
2022/06/17 04:20:15;;;;;;;;;;;17.00;93.30;;;;;;6219596;23;20005;-94
2022/06/17 04:22:54;;;;;;;;;;;;;;;;;;;;;
2022/06/17 04:25:55;;;;;;;6.40;5.75;;;17.10;93.20;;;;;;6220572;23;19982;-92
2022/06/17 04:28:31;;;;;;;6.53;5.82;;;17.10;93.30;;;;;;6132225;23;20149;-92
2022/06/17 04:31:10;;;;;;;6.28;5.68;;;17.20;93.30;;;;;;6205938;23;20012;-92
2022/06/17 04:33:53;;;;;;;6.38;5.75;;;17.20;93.30;;;;;;6218572;23;20490;-90
2022/06/17 04:36:49;;;;;;;7.75;5.88;;;17.30;93.20;;;;;;6193488;23;20001;-91
2022/06/17 04:39:32;;;;;;;6.80;6.10;;;17.30;93.20;;;;;;6216913;23;20013;-92
2022/06/17 04:42:07;;;;;;;6.60;6.00;;;17.40;93.10;;;;;;6220522;22;19996;-91
2022/06/17 04:44:34;;;;;;;7.43;5.75;;;17.40;93.10;;;;;;6280306;22;19999;-91
2022/06/17 04:47:06;;;;;;;9.35;6.72;;;17.50;93.00;;;;;;6279139;22;20003;-91
2022/06/17 04:50:16;;;;;;;7.25;5.63;;;17.50;93.00;;;;;;6243679;22;20016;-93
2022/06/17 04:53:12;;;;;;;5.88;5.38;;;17.50;92.90;;;;;;6282119;22;20455;-92
2022/06/17 04:55:46;;;;;;;6.38;5.70;;;17.60;92.80;;;;;;6280955;22;20302;-93
2022/06/17 04:58:26;;;;;;;9.30;5.43;;;17.60;92.80;;;;;;6283807;22;19999;-95
2022/06/17 05:00:54;;;;;;;9.05;6.38;;;17.60;92.60;;;;;;6279753;22;20086;-92
2022/06/17 05:03:44;;;;;;;6.22;5.63;;;17.70;92.50;;;;;;6281085;22;20093;-95
2022/06/17 05:06:19;;;;;;;7.03;5.55;;;17.70;92.50;;;;;;6263740;22;19999;-94
2022/06/17 05:09:21;;;;;;;7.13;5.63;;;17.70;92.40;;;;;;6285249;22;20410;-95
2022/06/17 05:11:56;;;;;;;6.15;5.25;;;17.80;92.40;;;;;;6279953;22;20004;-92
2022/06/17 05:14:44;;;;;;;6.13;5.53;;;17.80;92.30;;;;;;6279418;22;20000;-91
2022/06/17 05:17:19;;;;;;;6.38;5.28;;;17.80;92.30;;;;;;6278690;22;20004;-92
2022/06/17 05:19:44;;;;;;;5.72;4.88;;;17.90;92.30;;;;;;6279749;22;20006;-89
2022/06/17 05:22:16;;;;;;;5.70;4.82;;;17.90;92.20;;;;;;6280199;22;20004;-90
2022/06/17 05:24:43;;;;;;;6.97;5.22;;;18.00;92.20;;;;;;6279085;22;20002;-90
2022/06/17 05:27:16;;;;;;;6.28;5.07;;;18.00;92.10;;;;;;6278852;22;19999;-90
2022/06/17 05:29:47;;;;;;;6.10;4.55;;;18.00;92.10;;;;;;6279501;22;20012;-92
2022/06/17 05:32:19;;;;;;;6.97;5.15;;;18.10;92.00;;;;;;6288024;22;19988;-90
2022/06/17 05:34:51;;;;;;;6.35;4.80;;;18.20;91.90;;;;;;6304378;22;20038;-91
2022/06/17 05:37:17;;;;;;;5.05;4.55;;;18.20;91.80;;;;;;6305148;22;19987;-90
2022/06/17 05:39:43;;;;;;;4.80;4.10;;;18.20;91.80;;;;;;6305024;22;20044;-93
2022/06/17 05:42:15;;;;;;;5.22;4.70;;;18.20;91.70;;;;;;6304661;22;20004;-90
2022/06/17 05:44:48;;;;;;;6.30;4.68;;;18.30;91.70;;;;;;6268466;22;20034;-90
2022/06/17 05:47:14;;;;;;;4.72;4.22;;;18.30;91.60;;;;;;6279518;22;20078;-92
2022/06/17 05:49:53;;;;;;;5.13;4.05;;;18.30;91.50;;;;;;6277646;22;20050;-92
2022/06/17 05:52:24;;;;;;;7.25;4.75;;;18.30;91.40;;;;;;6278857;22;20019;-92
2022/06/17 05:55:00;;;;;;;4.72;4.22;;;18.40;91.40;;;;;;6227691;22;20004;-89
2022/06/17 05:57:36;;;;;;;5.55;3.88;;;18.50;91.30;;;;;;6279339;22;19996;-90
2022/06/17 06:00:07;;;;;;;4.80;3.70;;;18.50;91.20;;;;;;6254507;22;20003;-93
2022/06/17 06:02:43;;;;;;;4.88;3.95;;;18.60;91.20;;;;;;6279055;22;20000;-94
2022/06/17 06:05:20;;;;;;;7.40;4.00;;;18.70;91.00;;;;;;6278593;22;20071;-93
2022/06/17 06:07:59;;;;;;;;;;;;;;;;;;;;;
2022/06/17 06:10:28;;;;;;;6.68;3.80;;;18.90;90.90;;;;;;6280118;22;20079;-93
2022/06/17 06:12:54;;;;;;;5.60;3.80;;;19.00;90.80;;;;;;6278344;22;20026;-95
2022/06/17 06:15:24;;;;;;;7.45;4.00;;;19.00;90.70;;;;;;6278769;22;20027;-92
2022/06/17 06:18:26;;;;;;;4.85;3.28;;;19.10;90.60;;;;;;6253817;22;20030;-93
2022/06/17 06:20:54;;;;;;;5.13;3.53;;;19.30;90.50;;;;;;6277924;22;20004;-93
2022/06/17 06:23:20;;;;;;;6.25;3.05;;;19.40;90.80;;;;;;6277478;22;19996;-92
2022/06/17 06:25:55;;;;;;;3.83;2.80;;;19.50;90.40;;;;;;6280324;22;20023;-91
2022/06/17 06:28:35;;;;;;;4.38;2.92;;;19.60;90.20;;;;;;6279066;22;20026;-92
2022/06/17 06:31:31;;;;;;;4.10;3.08;;;19.70;90.10;;;;;;6253717;22;20004;-89
2022/06/17 06:33:57;;;;;;;7.63;3.05;;;19.70;90.10;;;;;;6279195;22;20362;-89
2022/06/17 06:36:29;;;;;;;3.80;3.00;;;19.80;89.40;;;;;;6278332;22;19996;-92
2022/06/17 06:39:26;;;;;;;6.10;4.07;;;19.90;89.00;;;;;;6282021;22;20492;-91
2022/06/17 06:41:55;;;;;;;4.75;3.17;;;20.00;88.70;;;;;;6282795;22;20000;-90
2022/06/17 06:44:20;;;;;;;4.80;2.70;;;20.00;89.20;;;;;;6285063;22;20410;-91
2022/06/17 06:46:58;;;;;;;5.93;3.10;;;20.10;88.20;;;;;;6292863;22;20003;-89
2022/06/17 06:49:29;;;;;;;4.10;2.90;;;20.20;87.90;;;;;;6273410;22;20003;-91
2022/06/17 06:52:36;;;;;;;4.80;3.53;;;20.30;87.50;;;;;;6268149;22;20016;-89
2022/06/17 06:55:01;;;;;;;4.97;2.90;;;20.40;87.20;;;;;;6260462;22;20031;-95
2022/06/17 06:57:36;;;;;;;2.78;2.33;;;20.50;87.20;;;;;;6281931;22;20000;-93
2022/06/17 07:00:11;;;;;;;3.42;2.45;;;20.60;87.10;;;;;;6280623;22;20000;-95
2022/06/17 07:02:53;;;;;;;3.42;2.05;;;20.70;86.60;;;;;;6279711;22;20019;-93
2022/06/17 07:05:29;;;;;;;2.22;1.98;;;20.80;86.50;;;;;;6279134;22;20004;-92
2022/06/17 07:07:56;;;;;;;3.83;2.17;;;20.80;86.20;;;;;;6277958;22;20011;-93
2022/06/17 07:10:29;;;;;;;3.33;2.35;;;20.90;85.90;;;;;;6252900;22;20004;-94
2022/06/17 07:13:12;;;;;;;3.70;2.10;;;21.00;85.60;;;;;;6279178;22;19996;-92
2022/06/17 07:15:55;;;;;;;5.38;2.35;;;21.10;85.40;;;;;;6278350;22;20083;-93
2022/06/17 07:18:45;;;;;;;2.13;1.92;;;21.10;85.00;;;;;;6278327;22;20004;-93
2022/06/17 07:21:13;;;;;;;3.15;2.20;;;21.30;84.90;;;;;;6277956;22;20010;-94
2022/06/17 07:23:41;;;;;;;4.22;2.05;;;21.30;84.70;;;;;;6277393;22;20011;-91
2022/06/17 07:26:14;;;;;;;3.05;1.92;;;21.40;84.60;;;;;;6277911;22;20020;-93
2022/06/17 07:28:42;;;;;;;2.50;2.05;;;21.40;84.60;;;;;;6279984;22;20003;-93
2022/06/17 07:31:08;;;;;;;3.92;2.20;;;21.50;84.40;;;;;;6278716;22;20000;-93
2022/06/17 07:33:38;;;;;;;3.00;2.20;;;21.50;84.30;;;;;;6278808;22;20037;-92
2022/06/17 07:39:53;;;;;;;3.72;2.15;;;21.60;84.10;;;;;;6283233;22;20086;-93
2022/06/17 07:41:43;;;;;;;3.53;2.45;;;21.60;83.90;;;;;;6304918;22;20018;-93
2022/06/17 07:44:14;;;;;;;3.00;2.28;;;21.70;83.80;;;;;;6303869;22;20000;-94
2022/06/17 07:46:39;;;;;;;3.38;2.05;;;21.70;83.70;;;;;;6301834;22;19984;-93
2022/06/17 07:49:15;;;;;;;2.20;1.73;;;21.70;83.50;;;;;;6291884;22;20123;-93
2022/06/17 07:51:58;;;;;;;3.47;2.08;;;21.70;83.30;;;;;;6280034;22;20103;-94
2022/06/17 07:54:47;;;;;;;3.22;1.90;;;21.80;82.90;;;;;;6278825;22;20004;-93
2022/06/17 07:57:16;;;;;;;2.85;2.00;;;21.90;82.80;;;;;;6259084;22;20090;-93
2022/06/17 07:59:48;;;;;;;2.03;1.73;;;21.90;82.80;;;;;;6278579;22;20008;-90
2022/06/17 08:02:17;;;;;;;3.10;1.85;;;22.00;82.80;;;;;;6279776;22;20007;-93
2022/06/17 08:04:45;;;;;;;1.88;1.70;;;22.00;82.80;;;;;;6278937;22;20003;-92
2022/06/17 08:07:14;;;;;;;2.92;1.98;;;22.10;82.60;;;;;;6278940;22;20000;-92
2022/06/17 08:09:42;;;;;;;3.45;1.98;;;22.20;82.40;;;;;;6278756;22;20008;-93
2022/06/17 08:12:13;;;;;;;3.58;1.73;;;22.20;82.40;;;;;;6278343;22;20364;-94
2022/06/17 08:14:46;;;;;;;2.38;1.88;;;22.30;82.50;;;;;;6278451;22;20008;-93
2022/06/17 08:17:18;;;;;;;2.70;2.03;;;22.40;82.40;;;;;;6279389;22;20000;-92
2022/06/17 08:19:49;;;;;;;2.13;1.77;;;22.40;82.40;;;;;;6279774;22;20007;-92
2022/06/17 08:22:25;;;;;;;2.15;1.70;;;22.50;82.30;;;;;;6278137;22;20000;-92
2022/06/17 08:25:00;;;;;;;4.30;1.80;;;22.60;82.30;;;;;;6279686;22;20011;-92
2022/06/17 08:27:32;;;;;;;2.08;1.60;;;22.60;82.20;;;;;;6278673;22;19996;-92
2022/06/17 08:30:03;;;;;;;3.08;1.83;;;22.70;81.90;;;;;;6256024;22;20043;-92
2022/06/17 08:32:48;;;;;;;;;;;22.80;81.20;;;;;;6252429;22;20038;-93
2022/06/17 08:35:29;;;;;;;2.00;1.80;;;22.80;80.90;;;;;;6279269;22;19910;-93
2022/06/17 08:38:01;;;;;;;4.57;2.10;;;22.90;80.50;;;;;;6261140;22;20003;-93
2022/06/17 08:40:48;;;;;;;2.95;1.80;;;22.90;80.10;;;;;;6280992;22;20061;-92
2022/06/17 08:43:34;;;;;;;4.18;2.15;;;23.00;79.70;;;;;;6280125;22;20003;-95
2022/06/17 08:46:31;;;;;;;2.97;1.70;;;23.10;79.30;;;;;;6280220;22;19996;-91
2022/06/17 08:49:32;;;;;;;2.53;1.50;;;23.20;79.00;;;;;;6283546;22;20039;-92
2022/06/17 08:52:11;;;;;;;3.88;1.90;;;23.30;78.90;;;;;;6278822;22;20422;-93
2022/06/17 08:55:07;;;;;;;2.17;1.77;;;23.30;78.60;;;;;;6281056;22;19999;-95
2022/06/17 08:58:00;;;;;;;2.40;1.52;;;23.40;78.60;;;;;;6279475;22;20011;-94
2022/06/17 09:00:47;;;;;;;4.68;1.75;;;23.40;78.70;;;;;;6280933;22;19999;-93
2022/06/17 09:06:36;;;;;;;2.47;1.60;;;23.50;77.30;;;;;;6282097;22;20161;-93
2022/06/17 09:09:28;;;;;;;2.95;2.00;;;23.60;77.40;;;;;;6281391;22;20004;-92
2022/06/17 09:12:11;;;;;;;2.08;1.88;;;23.70;77.10;;;;;;6281555;22;20083;-93
2022/06/17 09:15:15;;;;;;;3.13;1.50;;;23.70;76.50;;;;;;6281891;22;19996;-95
2022/06/17 09:18:14;;;;;;;2.08;1.50;;;23.80;76.40;;;;;;6280682;22;20011;-93
2022/06/17 09:20:46;;;;;;;3.08;1.52;;;23.80;76.30;;;;;;6280041;22;20471;-94
2022/06/17 09:23:31;;;;;;;2.47;1.80;;;23.90;76.20;;;;;;6281180;22;20451;-94
2022/06/17 09:26:05;;;;;;;2.25;1.50;;;23.90;75.70;;;;;;6279281;22;19999;-95
2022/06/17 09:29:17;;;;;;;3.03;1.50;;;24.00;75.70;;;;;;6280509;22;20038;-94
2022/06/17 09:31:58;;;;;;;2.78;1.58;;;24.10;75.40;;;;;;6223597;22;20072;-93
2022/06/17 09:34:57;;;;;;;2.67;1.95;;;24.10;75.40;;;;;;6280858;22;20417;-95
2022/06/17 09:37:42;;;;;;;3.88;1.67;;;24.20;75.00;;;;;;6283460;22;19999;-95
2022/06/17 09:40:29;;;;;;;6.00;1.70;;;24.20;74.70;;;;;;6287834;22;20074;-93
2022/06/17 09:43:35;;;;;;;3.72;2.00;;;24.30;74.20;;;;;;6281469;22;19995;-94
2022/06/17 09:46:32;;;;;;;2.53;1.67;;;24.30;73.90;;;;;;6282285;22;20007;-94
2022/06/17 09:49:49;;;;;;;3.42;1.70;;;24.40;73.80;;;;;;6282661;22;20099;-93
2022/06/17 09:52:35;;;;;;;3.50;1.70;;;24.40;73.30;;;;;;6305635;22;19999;-94
2022/06/17 09:55:42;;;;;;;3.53;2.00;;;24.40;73.30;;;;;;6305125;22;20043;-92
2022/06/17 09:58:42;;;;;;;3.75;1.70;;;24.50;72.70;;;;;;6224713;22;20063;-93
2022/06/17 10:01:18;;;;;;;1.85;1.48;;;24.50;72.70;;;;;;6303530;22;19992;-94
2022/06/17 10:03:50;;;;;;;2.45;1.83;;;24.60;72.80;;;;;;6273686;22;20004;-94
2022/06/17 10:06:51;;;;;;;2.83;1.77;;;24.60;72.60;;;;;;6280223;22;20036;-93
2022/06/17 10:09:49;;;;;;;3.72;1.67;;;24.60;72.00;;;;;;6279761;22;20004;-94
2022/06/17 10:12:34;;;;;;;1.73;1.35;;;24.70;72.00;;;;;;6280646;22;20006;-94
2022/06/17 10:15:46;;;;;;;3.78;1.70;;;24.70;71.90;;;;;;6284354;22;20000;-91
2022/06/17 10:19:08;;;;;;;3.97;1.70;;;24.80;71.80;;;;;;6289275;22;20007;-95
2022/06/17 10:22:02;;;;;;;3.03;1.83;;;24.90;71.60;;;;;;6250250;22;20067;-92
2022/06/17 10:25:24;;;;;;;2.92;1.83;;;24.90;71.30;;;;;;6300712;22;20043;-94
2022/06/17 10:28:20;;;;;;;;;;;;;;;;;;;;;
2022/06/17 10:31:08;;;;;;;8.07;6.00;;;25.00;70.40;;;;;;6294707;22;19999;-93
2022/06/17 10:34:03;;;;;;;5.90;4.00;;;25.00;70.30;;;;;;6287658;22;19999;-95
2022/06/17 10:36:41;;;;;;;3.65;2.60;;;24.90;70.30;;;;;;6294253;22;20006;-94
2022/06/17 10:39:27;;;;;;;;;;;;;;;;;;;;;
2022/06/17 10:41:57;;;;;;;3.17;1.80;;;25.10;70.50;;;;;;6283905;22;20031;-93
2022/06/17 10:44:24;;;;;;;;;;;25.10;70.50;;;;;;6280066;22;20019;-95
2022/06/17 10:47:17;;;;;;;4.20;1.52;;;25.20;70.70;;;;;;6282166;22;19899;-93
2022/06/17 10:49:59;;;;;;;2.15;1.58;;;25.20;70.90;;;;;;6276074;22;20012;-93
2022/06/17 10:52:32;;;;;;;2.75;1.50;;;25.20;70.80;;;;;;6278713;22;20012;-94
2022/06/17 10:55:07;;;;;;;3.05;1.80;;;25.30;70.50;;;;;;6277441;22;20003;-91
2022/06/17 10:57:58;;;;;;;1.40;1.30;;;25.30;70.20;;;;;;6278397;22;19996;-91
2022/06/17 11:00:40;;;;;;;2.35;1.45;;;25.30;69.90;;;;;;6279691;22;19999;-93
2022/06/17 11:03:27;;;;;;;3.03;1.55;;;25.40;69.40;;;;;;6278809;22;20333;-94
2022/06/17 11:06:00;;;;;;;2.10;1.60;;;25.40;69.20;;;;;;6277665;22;20000;-94
2022/06/17 11:08:41;;;;;;;2.17;1.60;;;25.40;69.00;;;;;;6278810;22;20004;-94
2022/06/17 11:12:06;;;;;;;4.35;1.65;;;25.50;68.80;;;;;;6278556;22;20004;-94
2022/06/17 11:14:44;;;;;;;2.40;1.42;;;25.50;68.50;;;;;;6269558;22;20003;-95
2022/06/17 11:17:19;;;;;;;2.55;1.70;;;25.50;68.40;;;;;;6277269;22;20031;-94
2022/06/17 11:19:49;;;;;;;2.75;1.50;;;25.50;68.10;;;;;;6277898;22;20004;-95
2022/06/17 11:22:35;;;;;;;1.95;1.48;;;25.60;68.00;;;;;;6278551;22;20000;-96
2022/06/17 11:25:26;;;;;;;2.70;1.30;;;25.60;67.80;;;;;;6282932;22;20008;-95
2022/06/17 11:28:13;;;;;;;2.53;1.30;;;25.70;67.80;;;;;;6279371;22;19996;-95
2022/06/17 11:30:57;;;;;;;2.53;1.25;;;25.70;67.40;;;;;;6279223;22;20506;-91
2022/06/17 11:33:30;;;;;;;2.22;1.20;;;25.70;67.00;;;;;;6277912;22;20022;-94
2022/06/17 11:36:18;;;;;;;2.03;1.40;;;25.80;67.10;;;;;;6278501;22;19996;-92
2022/06/17 11:38:44;;;;;;;3.20;1.40;;;25.80;66.40;;;;;;6277335;22;20058;-93
2022/06/17 11:41:17;;;;;;;2.65;1.10;;;25.90;66.20;;;;;;6277929;22;20004;-94
2022/06/17 11:43:47;;;;;;;2.78;1.27;;;25.90;66.00;;;;;;6279476;22;19996;-92
2022/06/17 11:46:25;;;;;;;2.58;1.50;;;26.00;65.70;;;;;;6277712;22;20026;-93
2022/06/17 11:49:03;;;;;;;2.53;1.50;;;26.00;65.20;;;;;;6278003;22;20011;-93
2022/06/17 11:51:44;;;;;;;1.85;1.38;;;26.00;64.90;;;;;;6278220;22;20016;-92
2022/06/17 11:54:26;;;;;;;2.30;1.40;;;26.10;65.00;;;;;;6279656;22;20008;-91
2022/06/17 11:57:02;;;;;;;2.83;1.58;;;26.10;65.00;;;;;;6283177;22;20436;-93
2022/06/17 11:59:32;;;;;;;2.00;1.67;;;26.20;64.80;;;;;;6284302;22;20004;-92
2022/06/17 12:01:57;;;;;;;2.85;1.40;;;26.20;64.70;;;;;;6283481;22;20006;-90
2022/06/17 12:04:46;;;;;;;2.13;1.25;;;26.20;64.80;;;;;;6295255;22;19995;-92
2022/06/17 12:07:21;;;;;;;2.95;1.52;;;26.30;64.80;;;;;;6300517;22;19996;-92
2022/06/17 12:09:53;;;;;;;2.10;1.50;;;26.40;64.80;;;;;;6304288;22;20022;-91
2022/06/17 12:12:21;;;;;;;3.45;1.80;;;26.40;64.80;;;;;;6306793;22;20044;-91
2022/06/17 12:14:58;;;;;;;2.30;1.38;;;26.40;64.50;;;;;;6306073;22;20008;-94
2022/06/17 12:17:25;;;;;;;3.15;1.48;;;26.50;64.60;;;;;;6305215;22;20000;-94
2022/06/17 12:19:51;;;;;;;2.47;1.73;;;26.50;64.50;;;;;;6303924;22;20000;-94
2022/06/17 12:22:34;;;;;;;3.08;1.83;;;26.60;64.40;;;;;;6290432;22;19998;-94
2022/06/17 12:25:29;;;;;;;3.13;1.48;;;26.60;64.40;;;;;;6282533;22;20082;-91
2022/06/17 12:28:05;;;;;;;1.58;1.48;;;26.60;64.30;;;;;;6282516;22;20000;-93
2022/06/17 12:31:22;;;;;;;2.53;1.80;;;26.70;64.20;;;;;;6279327;22;19996;-91
2022/06/17 12:34:12;;;;;;;1.52;1.42;;;26.70;64.00;;;;;;6156949;23;20006;-94
2022/06/17 12:36:50;;;;;;;2.30;1.67;;;26.70;64.00;;;;;;6132475;23;20312;-94
2022/06/17 12:39:39;;;;;;;2.55;1.48;;;26.80;64.00;;;;;;6273318;22;20322;-94
2022/06/17 12:42:28;;;;;;;3.20;1.87;;;26.80;63.80;;;;;;6278775;22;20000;-95
2022/06/17 12:45:26;;;;;;;1.92;1.55;;;26.90;63.80;;;;;;6277705;22;20234;-93
2022/06/17 12:48:04;;;;;;;3.10;1.52;;;26.90;63.70;;;;;;6278378;22;20498;-93
2022/06/17 12:54:00;;;;;;;1.73;1.63;;;26.90;63.40;;;;;;6175872;22;20019;-92
2022/06/17 12:57:07;;;;;;;1.75;1.40;;;27.00;63.20;;;;;;6279199;22;20049;-94
2022/06/17 13:00:04;;;;;;;2.08;1.67;;;27.00;63.00;;;;;;6280044;22;20000;-93
2022/06/17 13:02:56;;;;;;;2.90;1.67;;;27.10;63.10;;;;;;6280057;22;19995;-94
2022/06/17 13:05:32;;;;;;;2.55;2.10;;;27.10;63.00;;;;;;6220658;22;20395;-95
2022/06/17 13:08:17;;;;;;;2.70;2.00;;;27.10;62.20;;;;;;6280050;22;20000;-91
2022/06/17 13:10:56;;;;;;;4.38;1.83;;;27.20;62.20;;;;;;6279225;22;20091;-91
2022/06/17 13:13:31;;;;;;;3.20;1.40;;;27.20;62.60;;;;;;6280774;22;20002;-94
2022/06/17 13:16:28;;;;;;;1.65;1.33;;;27.20;62.60;;;;;;6279874;22;20023;-92
2022/06/17 13:19:17;;;;;;;3.97;1.85;;;27.30;62.50;;;;;;6280389;22;20054;-93
2022/06/17 13:21:56;;;;;;;2.60;1.70;;;27.30;62.60;;;;;;6278725;22;20000;-94
2022/06/17 13:24:28;;;;;;;2.67;1.98;;;27.40;62.60;;;;;;6280154;22;20036;-94
2022/06/17 13:27:12;;;;;;;2.30;1.65;;;27.50;62.70;;;;;;6278553;22;20072;-92
2022/06/17 13:30:19;;;;;;;5.40;1.73;;;27.50;62.60;;;;;;6278687;22;20046;-92
2022/06/17 13:32:59;;;;;;;2.85;1.83;;;27.60;62.30;;;;;;6278296;22;20008;-92
2022/06/17 13:35:33;;;;;;;2.92;1.83;;;27.60;62.30;;;;;;6278068;22;20003;-92
2022/06/17 13:38:07;;;;;;;2.33;1.80;;;27.60;62.40;;;;;;6278320;22;20031;-93
2022/06/17 13:40:44;;;;;;;3.13;1.73;;;27.60;62.60;;;;;;6277948;22;20073;-93
2022/06/17 13:43:30;;;;;;;3.03;1.48;;;27.70;62.80;;;;;;6279534;22;20129;-92
2022/06/17 13:46:17;;;;;;;3.40;1.70;;;27.70;62.50;;;;;;6278365;22;20068;-95
2022/06/17 13:48:59;;;;;;;2.92;1.70;;;27.70;62.30;;;;;;6278720;22;20004;-92
2022/06/17 13:51:59;;;;;;;;;;;;;;;;;;;;;
2022/06/17 13:55:13;;;;;;;1.98;1.50;;;27.80;62.20;;;;;;6280552;22;20043;-93
2022/06/17 13:58:08;;;;;;;1.70;1.58;;;27.80;61.50;;;;;;6136269;22;20069;-94
2022/06/17 14:00:42;;;;;;;2.53;1.17;;;27.80;61.40;;;;;;6278634;22;20046;-91
2022/06/17 14:03:15;;;;;;;1.42;1.08;;;27.80;61.50;;;;;;6286952;22;20006;-93
2022/06/17 14:06:03;;;;;;;3.10;1.30;;;27.90;61.90;;;;;;6290602;22;20425;-93
2022/06/17 14:08:53;;;;;;;2.38;1.23;;;27.90;62.00;;;;;;6263241;22;20008;-92
2022/06/17 14:11:39;;;;;;;2.40;1.20;;;27.90;62.00;;;;;;6287483;22;20452;-92
2022/06/17 14:14:28;;;;;;;2.75;1.20;;;27.90;62.00;;;;;;6285109;22;20002;-94
2022/06/17 14:17:05;;;;;;;1.77;1.23;;;27.90;61.80;;;;;;6281185;22;20000;-92
2022/06/17 14:19:48;;;;;;;2.53;1.45;;;27.80;61.60;;;;;;6279222;22;20038;-94
2022/06/17 14:22:38;;;;;;;2.13;1.40;;;27.90;61.40;;;;;;6281834;22;20008;-93
2022/06/17 14:25:09;;;;;;;1.88;1.10;;;27.90;60.80;;;;;;6282898;22;19995;-95
2022/06/17 14:27:37;;;;;;;1.90;1.10;;;27.90;60.80;;;;;;6282906;22;20012;-93
2022/06/17 14:30:22;;;;;;;2.08;1.23;;;27.90;60.80;;;;;;6301205;22;20038;-89
2022/06/17 14:35:49;;;;;;;1.85;1.35;;;27.90;60.90;;;;;;6299542;22;20061;-91
2022/06/17 14:38:39;;;;;;;1.35;1.10;;;27.90;60.90;;;;;;6305538;22;20019;-91
2022/06/17 14:44:17;;;;;;;2.22;1.02;;;28.00;60.90;;;;;;6282715;22;20495;-93
2022/06/17 14:47:23;;;;;;;1.50;1.00;;;28.00;60.90;;;;;;6278951;22;20004;-91
2022/06/17 14:50:17;;;;;;;0.90;0.90;;;28.00;60.80;;;;;;6278222;22;20051;-93
2022/06/17 14:52:59;;;;;;;1.58;0.95;;;28.10;60.70;;;;;;6278348;22;20034;-93
2022/06/17 14:55:39;;;;;;;;;;;;;;;;;;;;;
2022/06/17 14:58:16;;;;;;;1.00;0.90;;;28.20;60.00;;;;;;6278938;22;20070;-94
2022/06/17 15:00:42;;;;;;;1.00;0.90;;;28.20;59.70;;;;;;6279031;22;20003;-91
2022/06/17 15:03:33;;;;;;;0.82;0.80;;;28.30;59.40;;;;;;6277727;22;20105;-95
2022/06/17 15:06:02;;;;;;;1.70;0.90;;;28.30;59.00;;;;;;6277674;22;20000;-94
2022/06/17 15:08:44;;;;;;;1.85;1.10;;;28.40;59.00;;;;;;6277622;22;20490;-92
2022/06/17 15:11:19;;;;;;;1.20;0.80;;;28.40;58.70;;;;;;6276718;22;19995;-91
2022/06/17 15:14:07;;;;;;;2.08;0.90;;;28.40;58.60;;;;;;6279331;22;19999;-93
2022/06/17 15:17:01;;;;;;;1.25;0.82;;;28.40;58.80;;;;;;6279274;22;20038;-93
2022/06/17 15:19:37;;;;;;;2.03;1.00;;;28.30;58.90;;;;;;6277722;22;20441;-94
2022/06/17 15:22:28;;;;;;;1.13;0.90;;;28.30;59.00;;;;;;6277456;22;20004;-93
2022/06/17 15:25:08;;;;;;;2.17;1.08;;;28.30;59.00;;;;;;6256363;22;20003;-96
2022/06/17 15:27:42;;;;;;;1.08;0.98;;;28.40;59.00;;;;;;6277723;22;20093;-92
2022/06/17 15:30:27;;;;;;;;;;;;;;;;;;;;;
2022/06/17 15:33:01;;;;;;;1.23;0.88;;;28.50;59.00;;;;;;6278435;22;20076;-94
2022/06/17 15:35:30;;;;;;;1.27;0.85;;;28.50;59.10;;;;;;6277282;22;20035;-94
2022/06/17 15:40:34;;;;;;;1.70;1.00;;;28.50;59.50;;;;;;6247546;22;20038;-93
2022/06/17 15:43:13;;;;;;;0.98;0.88;;;28.50;59.60;;;;;;6278405;22;20405;-95
2022/06/17 15:45:46;;;;;;;3.08;1.13;;;28.50;59.20;;;;;;6278456;22;20006;-94
2022/06/17 15:48:37;;;;;;;2.70;1.00;;;28.50;59.20;;;;;;6279736;22;20480;-94
2022/06/17 15:51:19;;;;;;;1.58;0.82;;;28.50;58.60;;;;;;6280183;22;20000;-95
2022/06/17 15:53:45;;;;;;;1.27;0.88;;;28.60;58.40;;;;;;6279296;22;20091;-93
2022/06/17 15:56:21;;;;;;;1.25;0.80;;;28.60;58.10;;;;;;6281059;22;20003;-94
2022/06/17 15:58:57;;;;;;;1.50;1.00;;;28.60;57.90;;;;;;6283398;22;20417;-96
2022/06/17 16:01:36;;;;;;;1.15;0.77;;;28.70;58.00;;;;;;6278898;22;20020;-93
2022/06/17 16:04:18;;;;;;;1.47;1.03;;;28.70;57.70;;;;;;6279292;22;20004;-94
2022/06/17 16:07:00;;;;;;;1.42;0.75;;;28.60;57.50;;;;;;6279473;22;20041;-93
2022/06/17 16:22:18;;;;;;;2.85;0.95;;;28.50;57.70;;;;;;6325543;22;20027;-90
2022/06/17 16:28:17;;;;;;;1.83;0.90;;;28.40;57.80;;;;;;6299393;22;20011;-91
2022/06/17 16:31:39;;;;;;;1.42;0.95;;;28.40;57.90;;;;;;6310857;22;20293;-90
2022/06/17 16:34:19;;;;;;;1.60;1.30;;;28.40;58.20;;;;;;6305089;22;20007;-89
2022/06/17 16:37:00;;;;;;;5.97;4.18;;;28.40;58.50;;;;;;6309396;22;20003;-90
2022/06/17 16:40:07;;;;;;;6.03;5.43;;;28.40;58.40;;;;;;6309920;22;20034;-92
2022/06/17 16:45:34;;;;;;;1.60;1.50;;;28.40;58.60;;;;;;6311204;22;20019;-91
2022/06/17 16:48:01;;;;;;;2.00;1.33;;;28.40;58.90;;;;;;6309282;22;20003;-87
2022/06/17 16:50:29;;;;;;;1.20;1.10;;;28.40;59.10;;;;;;6313382;22;19999;-86
2022/06/17 16:52:57;;;;;;;2.63;1.50;;;28.30;59.20;;;;;;6335889;22;20034;-86
2022/06/17 16:55:26;;;;;;;1.90;1.70;;;28.40;59.50;;;;;;6335090;22;20005;-87
2022/06/17 16:57:52;;;;;;;2.72;1.50;;;28.40;59.70;;;;;;6333873;22;19983;-86
2022/06/17 17:00:27;;;;;;;2.05;1.10;;;28.40;59.90;;;;;;6335477;22;20080;-86
2022/06/17 17:02:53;;;;;;;1.45;1.10;;;28.40;60.00;;;;;;6331809;22;19987;-86
2022/06/17 17:05:44;;;;;;;1.30;1.08;;;28.30;60.00;;;;;;6325141;22;20011;-86
2022/06/17 17:08:10;;;;;;;1.77;1.10;;;28.30;59.90;;;;;;6311184;22;19999;-84
2022/06/17 17:10:36;;;;;;;2.25;1.08;;;28.30;60.10;;;;;;6282755;22;20463;-85
2022/06/17 17:13:05;;;;;;;1.48;1.10;;;28.30;60.30;;;;;;6282915;22;20038;-85
2022/06/17 17:15:30;;;;;;;1.80;1.00;;;28.30;60.60;;;;;;6309890;22;20010;-85
2022/06/17 17:17:56;;;;;;;1.10;0.95;;;28.30;60.50;;;;;;6256834;22;20033;-87
2022/06/17 17:20:28;;;;;;;2.45;1.10;;;28.30;60.40;;;;;;6307289;22;20007;-88
2022/06/17 17:23:06;;;;;;;2.15;0.98;;;28.30;60.50;;;;;;6309653;22;20011;-91
2022/06/17 17:26:08;;;;;;;2.45;1.20;;;28.30;60.80;;;;;;6286388;22;20417;-91
2022/06/17 17:29:22;;;;;;;1.80;0.90;;;28.30;61.30;;;;;;6309755;22;20064;-94
2022/06/17 17:45:36;;;;;;;;;;;;;;;;;;;;;
2022/06/17 17:48:49;;;;;;;6.28;4.40;;;28.10;62.20;;;;;;6306940;22;20023;-91
2022/06/17 17:51:29;;;;;;;;;;;;;;;;;;;;;
2022/06/17 17:53:58;;;;;;;4.70;3.38;;;28.00;62.50;;;;;;6316162;22;20023;-88
2022/06/17 17:56:26;;;;;;;3.90;2.67;;;28.00;62.70;;;;;;6315433;22;20433;-88
2022/06/17 17:58:55;;;;;;;4.28;2.78;;;27.90;62.80;;;;;;6314992;22;20012;-87